sensor_id;sensor_type;location;lat;lon;timestamp;temperature;humidity
33901;DHT22;20193;49.810;6.418;2022-08-02T00:00:19;18.50;86.90
33901;DHT22;20193;49.810;6.418;2022-08-02T00:02:45;18.50;87.10
33901;DHT22;20193;49.810;6.418;2022-08-02T00:05:12;18.50;87.20
33901;DHT22;20193;49.810;6.418;2022-08-02T00:07:38;18.40;87.20
33901;DHT22;20193;49.810;6.418;2022-08-02T00:10:05;18.40;87.40
33901;DHT22;20193;49.810;6.418;2022-08-02T00:12:31;18.30;87.40
33901;DHT22;20193;49.810;6.418;2022-08-02T00:14:57;18.30;87.50
33901;DHT22;20193;49.810;6.418;2022-08-02T00:17:23;18.30;87.70
33901;DHT22;20193;49.810;6.418;2022-08-02T00:19:48;18.20;87.60
33901;DHT22;20193;49.810;6.418;2022-08-02T00:22:14;18.20;87.80
33901;DHT22;20193;49.810;6.418;2022-08-02T00:24:40;18.10;87.80
33901;DHT22;20193;49.810;6.418;2022-08-02T00:27:05;18.10;87.90
33901;DHT22;20193;49.810;6.418;2022-08-02T00:29:35;18.10;88.20
33901;DHT22;20193;49.810;6.418;2022-08-02T00:32:01;18.00;88.20
33901;DHT22;20193;49.810;6.418;2022-08-02T00:34:27;18.00;88.20
33901;DHT22;20193;49.810;6.418;2022-08-02T00:36:52;18.00;88.40
33901;DHT22;20193;49.810;6.418;2022-08-02T00:39:18;17.90;88.50
33901;DHT22;20193;49.810;6.418;2022-08-02T00:41:48;17.90;88.60
33901;DHT22;20193;49.810;6.418;2022-08-02T00:44:19;17.90;88.60
33901;DHT22;20193;49.810;6.418;2022-08-02T00:46:45;17.80;88.60
33901;DHT22;20193;49.810;6.418;2022-08-02T00:49:12;17.80;88.80
33901;DHT22;20193;49.810;6.418;2022-08-02T00:51:38;17.80;89.00
33901;DHT22;20193;49.810;6.418;2022-08-02T00:54:04;17.70;88.90
33901;DHT22;20193;49.810;6.418;2022-08-02T00:56:30;17.70;89.00
33901;DHT22;20193;49.810;6.418;2022-08-02T00:58:56;17.70;89.20
33901;DHT22;20193;49.810;6.418;2022-08-02T01:01:21;17.70;89.40
33901;DHT22;20193;49.810;6.418;2022-08-02T01:04:07;17.60;89.30
33901;DHT22;20193;49.810;6.418;2022-08-02T01:06:34;17.60;89.60
33901;DHT22;20193;49.810;6.418;2022-08-02T01:09:00;17.60;89.70
33901;DHT22;20193;49.810;6.418;2022-08-02T01:11:29;17.60;89.90
33901;DHT22;20193;49.810;6.418;2022-08-02T01:13:59;17.50;90.00
33901;DHT22;20193;49.810;6.418;2022-08-02T01:16:29;17.50;90.00
33901;DHT22;20193;49.810;6.418;2022-08-02T01:19:05;17.50;90.00
33901;DHT22;20193;49.810;6.418;2022-08-02T01:21:49;17.40;90.00
33901;DHT22;20193;49.810;6.418;2022-08-02T01:24:46;17.40;90.10
33901;DHT22;20193;49.810;6.418;2022-08-02T01:30:09;17.40;90.20
33901;DHT22;20193;49.810;6.418;2022-08-02T01:32:40;17.40;90.30
33901;DHT22;20193;49.810;6.418;2022-08-02T01:35:14;17.30;90.20
33901;DHT22;20193;49.810;6.418;2022-08-02T01:37:55;17.30;90.60
33901;DHT22;20193;49.810;6.418;2022-08-02T01:40:29;17.30;90.70
33901;DHT22;20193;49.810;6.418;2022-08-02T01:42:55;17.30;90.50
33901;DHT22;20193;49.810;6.418;2022-08-02T01:45:27;17.30;90.50
33901;DHT22;20193;49.810;6.418;2022-08-02T01:47:54;17.20;90.50
33901;DHT22;20193;49.810;6.418;2022-08-02T01:50:29;17.20;90.60
33901;DHT22;20193;49.810;6.418;2022-08-02T01:52:59;17.20;90.70
33901;DHT22;20193;49.810;6.418;2022-08-02T01:55:29;17.20;90.80
33901;DHT22;20193;49.810;6.418;2022-08-02T01:58:03;17.20;90.80
33901;DHT22;20193;49.810;6.418;2022-08-02T02:00:31;17.10;90.80
33901;DHT22;20193;49.810;6.418;2022-08-02T02:02:58;17.10;90.90
33901;DHT22;20193;49.810;6.418;2022-08-02T02:05:27;17.10;90.90
33901;DHT22;20193;49.810;6.418;2022-08-02T02:07:58;17.10;91.00
33901;DHT22;20193;49.810;6.418;2022-08-02T02:10:29;17.10;91.10
33901;DHT22;20193;49.810;6.418;2022-08-02T02:12:57;17.00;91.00
33901;DHT22;20193;49.810;6.418;2022-08-02T02:15:25;17.00;91.10
33901;DHT22;20193;49.810;6.418;2022-08-02T02:17:52;17.00;91.10
33901;DHT22;20193;49.810;6.418;2022-08-02T02:20:20;17.00;91.20
33901;DHT22;20193;49.810;6.418;2022-08-02T02:22:46;16.90;91.20
33901;DHT22;20193;49.810;6.418;2022-08-02T02:25:14;16.90;91.20
33901;DHT22;20193;49.810;6.418;2022-08-02T02:28:04;16.90;91.30
33901;DHT22;20193;49.810;6.418;2022-08-02T02:30:32;16.90;91.40
33901;DHT22;20193;49.810;6.418;2022-08-02T02:33:00;16.80;91.40
33901;DHT22;20193;49.810;6.418;2022-08-02T02:35:29;16.90;91.40
33901;DHT22;20193;49.810;6.418;2022-08-02T02:37:59;16.90;91.50
33901;DHT22;20193;49.810;6.418;2022-08-02T02:40:27;16.80;91.50
33901;DHT22;20193;49.810;6.418;2022-08-02T02:42:55;16.80;91.50
33901;DHT22;20193;49.810;6.418;2022-08-02T02:45:21;16.80;91.60
33901;DHT22;20193;49.810;6.418;2022-08-02T02:47:48;16.70;91.60
33901;DHT22;20193;49.810;6.418;2022-08-02T02:50:16;16.80;91.60
33901;DHT22;20193;49.810;6.418;2022-08-02T02:52:42;16.80;91.70
33901;DHT22;20193;49.810;6.418;2022-08-02T02:55:09;16.70;91.70
33901;DHT22;20193;49.810;6.418;2022-08-02T02:57:36;16.70;91.70
33901;DHT22;20193;49.810;6.418;2022-08-02T03:00:05;16.60;91.70
33901;DHT22;20193;49.810;6.418;2022-08-02T03:02:31;16.60;91.70
33901;DHT22;20193;49.810;6.418;2022-08-02T03:04:59;16.60;91.70
33901;DHT22;20193;49.810;6.418;2022-08-02T03:07:28;16.60;91.80
33901;DHT22;20193;49.810;6.418;2022-08-02T03:09:54;16.60;91.80
33901;DHT22;20193;49.810;6.418;2022-08-02T03:12:21;16.60;92.10
33901;DHT22;20193;49.810;6.418;2022-08-02T03:14:47;16.50;91.80
33901;DHT22;20193;49.810;6.418;2022-08-02T03:17:13;16.50;91.80
33901;DHT22;20193;49.810;6.418;2022-08-02T03:19:38;16.50;91.90
33901;DHT22;20193;49.810;6.418;2022-08-02T03:22:04;16.50;91.90
33901;DHT22;20193;49.810;6.418;2022-08-02T03:24:30;16.50;92.00
33901;DHT22;20193;49.810;6.418;2022-08-02T03:26:55;16.50;92.00
33901;DHT22;20193;49.810;6.418;2022-08-02T03:29:21;16.40;92.00
33901;DHT22;20193;49.810;6.418;2022-08-02T03:31:48;16.40;92.00
33901;DHT22;20193;49.810;6.418;2022-08-02T03:34:14;16.40;92.10
33901;DHT22;20193;49.810;6.418;2022-08-02T03:36:40;16.40;92.10
33901;DHT22;20193;49.810;6.418;2022-08-02T03:39:07;16.30;92.10
33901;DHT22;20193;49.810;6.418;2022-08-02T03:41:34;16.30;92.10
33901;DHT22;20193;49.810;6.418;2022-08-02T03:44:01;16.30;92.20
33901;DHT22;20193;49.810;6.418;2022-08-02T03:46:28;16.30;92.20
33901;DHT22;20193;49.810;6.418;2022-08-02T03:48:55;16.30;92.30
33901;DHT22;20193;49.810;6.418;2022-08-02T03:51:22;16.30;92.30
33901;DHT22;20193;49.810;6.418;2022-08-02T03:53:48;16.30;92.30
33901;DHT22;20193;49.810;6.418;2022-08-02T03:56:15;16.30;92.40
33901;DHT22;20193;49.810;6.418;2022-08-02T03:58:41;16.30;92.40
33901;DHT22;20193;49.810;6.418;2022-08-02T04:01:06;16.20;92.40
33901;DHT22;20193;49.810;6.418;2022-08-02T04:03:32;16.20;92.40
33901;DHT22;20193;49.810;6.418;2022-08-02T04:05:57;16.20;92.70
33901;DHT22;20193;49.810;6.418;2022-08-02T04:08:23;16.20;92.40
33901;DHT22;20193;49.810;6.418;2022-08-02T04:10:49;16.20;92.50
33901;DHT22;20193;49.810;6.418;2022-08-02T04:13:36;16.20;92.50
33901;DHT22;20193;49.810;6.418;2022-08-02T04:16:12;16.20;92.50
33901;DHT22;20193;49.810;6.418;2022-08-02T04:18:46;16.20;92.50
33901;DHT22;20193;49.810;6.418;2022-08-02T04:21:16;16.10;92.60
33901;DHT22;20193;49.810;6.418;2022-08-02T04:23:45;16.10;92.60
33901;DHT22;20193;49.810;6.418;2022-08-02T04:26:11;16.10;92.60
33901;DHT22;20193;49.810;6.418;2022-08-02T04:28:39;16.10;92.70
33901;DHT22;20193;49.810;6.418;2022-08-02T04:31:06;16.10;92.70
33901;DHT22;20193;49.810;6.418;2022-08-02T04:33:32;16.10;92.80
33901;DHT22;20193;49.810;6.418;2022-08-02T04:35:58;16.10;92.90
33901;DHT22;20193;49.810;6.418;2022-08-02T04:38:24;16.10;92.90
33901;DHT22;20193;49.810;6.418;2022-08-02T04:40:54;16.20;93.00
33901;DHT22;20193;49.810;6.418;2022-08-02T04:43:20;16.20;93.00
33901;DHT22;20193;49.810;6.418;2022-08-02T04:45:48;16.20;93.00
33901;DHT22;20193;49.810;6.418;2022-08-02T04:48:15;16.20;93.10
33901;DHT22;20193;49.810;6.418;2022-08-02T04:50:41;16.20;93.10
33901;DHT22;20193;49.810;6.418;2022-08-02T04:53:07;16.20;93.20
33901;DHT22;20193;49.810;6.418;2022-08-02T04:55:32;16.30;93.20
33901;DHT22;20193;49.810;6.418;2022-08-02T04:57:58;16.30;93.20
33901;DHT22;20193;49.810;6.418;2022-08-02T05:00:25;16.30;93.30
33901;DHT22;20193;49.810;6.418;2022-08-02T05:02:51;16.30;93.30
33901;DHT22;20193;49.810;6.418;2022-08-02T05:05:17;16.40;93.40
33901;DHT22;20193;49.810;6.418;2022-08-02T05:07:43;16.40;93.40
33901;DHT22;20193;49.810;6.418;2022-08-02T05:10:09;16.40;93.50
33901;DHT22;20193;49.810;6.418;2022-08-02T05:12:37;16.50;93.60
33901;DHT22;20193;49.810;6.418;2022-08-02T05:15:03;16.50;93.60
33901;DHT22;20193;49.810;6.418;2022-08-02T05:17:29;16.60;93.70
33901;DHT22;20193;49.810;6.418;2022-08-02T05:19:54;16.70;93.70
33901;DHT22;20193;49.810;6.418;2022-08-02T05:22:20;16.70;93.80
33901;DHT22;20193;49.810;6.418;2022-08-02T05:24:45;16.80;93.80
33901;DHT22;20193;49.810;6.418;2022-08-02T05:27:11;16.90;93.90
33901;DHT22;20193;49.810;6.418;2022-08-02T05:29:37;16.90;93.90
33901;DHT22;20193;49.810;6.418;2022-08-02T05:32:02;17.00;93.90
33901;DHT22;20193;49.810;6.418;2022-08-02T05:34:28;17.10;93.90
33901;DHT22;20193;49.810;6.418;2022-08-02T05:36:54;17.10;93.90
33901;DHT22;20193;49.810;6.418;2022-08-02T05:39:19;17.20;93.90
33901;DHT22;20193;49.810;6.418;2022-08-02T05:41:45;17.30;93.90
33901;DHT22;20193;49.810;6.418;2022-08-02T05:44:11;17.30;93.90
33901;DHT22;20193;49.810;6.418;2022-08-02T05:46:37;17.40;93.90
33901;DHT22;20193;49.810;6.418;2022-08-02T05:49:03;17.50;94.00
33901;DHT22;20193;49.810;6.418;2022-08-02T05:51:44;17.60;94.00
33901;DHT22;20193;49.810;6.418;2022-08-02T05:54:22;17.70;93.80
33901;DHT22;20193;49.810;6.418;2022-08-02T05:57:04;17.80;93.90
33901;DHT22;20193;49.810;6.418;2022-08-02T06:02:32;18.20;94.00
33901;DHT22;20193;49.810;6.418;2022-08-02T06:05:17;18.50;94.00
33901;DHT22;20193;49.810;6.418;2022-08-02T06:07:44;18.80;93.70
33901;DHT22;20193;49.810;6.418;2022-08-02T06:10:12;19.00;93.40
33901;DHT22;20193;49.810;6.418;2022-08-02T06:12:49;19.20;93.30
33901;DHT22;20193;49.810;6.418;2022-08-02T06:15:16;19.40;92.90
33901;DHT22;20193;49.810;6.418;2022-08-02T06:17:42;19.70;92.90
33901;DHT22;20193;49.810;6.418;2022-08-02T06:20:10;20.00;92.80
33901;DHT22;20193;49.810;6.418;2022-08-02T06:22:42;20.30;92.20
33901;DHT22;20193;49.810;6.418;2022-08-02T06:25:10;20.50;91.90
33901;DHT22;20193;49.810;6.418;2022-08-02T06:27:37;20.70;91.50
33901;DHT22;20193;49.810;6.418;2022-08-02T06:30:04;20.90;91.10
33901;DHT22;20193;49.810;6.418;2022-08-02T06:32:31;21.20;90.60
33901;DHT22;20193;49.810;6.418;2022-08-02T06:34:57;21.40;90.20
33901;DHT22;20193;49.810;6.418;2022-08-02T06:43:07;22.20;87.70
33901;DHT22;20193;49.810;6.418;2022-08-02T06:45:35;22.50;87.10
33901;DHT22;20193;49.810;6.418;2022-08-02T06:48:08;22.80;86.20
33901;DHT22;20193;49.810;6.418;2022-08-02T06:50:35;23.10;85.70
33901;DHT22;20193;49.810;6.418;2022-08-02T06:53:06;23.40;85.00
33901;DHT22;20193;49.810;6.418;2022-08-02T06:55:32;23.80;83.60
33901;DHT22;20193;49.810;6.418;2022-08-02T06:57:58;24.20;83.10
33901;DHT22;20193;49.810;6.418;2022-08-02T07:00:24;24.70;82.20
33901;DHT22;20193;49.810;6.418;2022-08-02T07:02:50;25.20;80.70
33901;DHT22;20193;49.810;6.418;2022-08-02T07:05:16;25.60;78.30
33901;DHT22;20193;49.810;6.418;2022-08-02T07:07:42;26.10;75.20
33901;DHT22;20193;49.810;6.418;2022-08-02T07:10:08;26.50;72.80
33901;DHT22;20193;49.810;6.418;2022-08-02T07:12:34;27.00;70.80
33901;DHT22;20193;49.810;6.418;2022-08-02T07:15:02;27.50;68.50
33901;DHT22;20193;49.810;6.418;2022-08-02T07:17:28;27.90;66.40
33901;DHT22;20193;49.810;6.418;2022-08-02T07:19:55;28.20;64.80
33901;DHT22;20193;49.810;6.418;2022-08-02T07:22:21;28.60;64.30
33901;DHT22;20193;49.810;6.418;2022-08-02T07:24:49;28.80;62.20
33901;DHT22;20193;49.810;6.418;2022-08-02T07:27:15;29.00;61.20
33901;DHT22;20193;49.810;6.418;2022-08-02T07:29:41;29.20;61.00
33901;DHT22;20193;49.810;6.418;2022-08-02T07:32:06;29.50;59.80
33901;DHT22;20193;49.810;6.418;2022-08-02T07:34:32;29.80;59.20
33901;DHT22;20193;49.810;6.418;2022-08-02T07:36:58;30.00;58.20
33901;DHT22;20193;49.810;6.418;2022-08-02T07:39:23;30.30;57.50
33901;DHT22;20193;49.810;6.418;2022-08-02T07:41:49;30.50;56.20
33901;DHT22;20193;49.810;6.418;2022-08-02T07:44:17;30.70;56.10
33901;DHT22;20193;49.810;6.418;2022-08-02T07:46:43;31.00;55.90
33901;DHT22;20193;49.810;6.418;2022-08-02T07:49:09;31.30;55.40
33901;DHT22;20193;49.810;6.418;2022-08-02T07:51:35;31.60;54.10
33901;DHT22;20193;49.810;6.418;2022-08-02T07:54:01;32.00;53.60
33901;DHT22;20193;49.810;6.418;2022-08-02T07:56:27;32.20;53.10
33901;DHT22;20193;49.810;6.418;2022-08-02T07:58:52;32.50;52.10
33901;DHT22;20193;49.810;6.418;2022-08-02T08:01:18;32.60;51.20
33901;DHT22;20193;49.810;6.418;2022-08-02T08:03:44;32.90;51.10
33901;DHT22;20193;49.810;6.418;2022-08-02T08:06:10;33.10;51.30
33901;DHT22;20193;49.810;6.418;2022-08-02T08:08:35;33.20;50.20
33901;DHT22;20193;49.810;6.418;2022-08-02T08:11:01;33.40;49.70
33901;DHT22;20193;49.810;6.418;2022-08-02T08:13:27;33.70;49.30
33901;DHT22;20193;49.810;6.418;2022-08-02T08:15:52;33.80;49.50
33901;DHT22;20193;49.810;6.418;2022-08-02T08:18:19;34.00;48.80
33901;DHT22;20193;49.810;6.418;2022-08-02T08:20:45;34.10;47.70
33901;DHT22;20193;49.810;6.418;2022-08-02T08:23:11;34.00;47.90
33901;DHT22;20193;49.810;6.418;2022-08-02T08:25:37;34.00;48.00
33901;DHT22;20193;49.810;6.418;2022-08-02T08:28:02;34.10;48.10
33901;DHT22;20193;49.810;6.418;2022-08-02T08:30:28;34.20;48.30
33901;DHT22;20193;49.810;6.418;2022-08-02T08:32:54;34.30;47.90
33901;DHT22;20193;49.810;6.418;2022-08-02T08:35:19;34.50;47.60
33901;DHT22;20193;49.810;6.418;2022-08-02T08:37:45;34.70;47.00
33901;DHT22;20193;49.810;6.418;2022-08-02T08:40:11;34.80;46.60
33901;DHT22;20193;49.810;6.418;2022-08-02T08:42:38;35.00;46.50
33901;DHT22;20193;49.810;6.418;2022-08-02T08:45:05;35.20;46.10
33901;DHT22;20193;49.810;6.418;2022-08-02T08:47:37;35.30;45.70
33901;DHT22;20193;49.810;6.418;2022-08-02T08:50:15;35.40;45.50
33901;DHT22;20193;49.810;6.418;2022-08-02T08:52:48;35.60;45.40
33901;DHT22;20193;49.810;6.418;2022-08-02T08:55:16;35.80;44.00
33901;DHT22;20193;49.810;6.418;2022-08-02T08:57:43;35.90;43.70
33901;DHT22;20193;49.810;6.418;2022-08-02T09:00:11;36.00;43.20
33901;DHT22;20193;49.810;6.418;2022-08-02T09:02:39;36.10;43.00
33901;DHT22;20193;49.810;6.418;2022-08-02T09:05:13;36.20;42.30
33901;DHT22;20193;49.810;6.418;2022-08-02T09:07:39;36.40;42.20
33901;DHT22;20193;49.810;6.418;2022-08-02T09:15:59;36.50;41.60
33901;DHT22;20193;49.810;6.418;2022-08-02T09:18:33;36.50;41.30
33901;DHT22;20193;49.810;6.418;2022-08-02T09:21:07;36.40;41.10
33901;DHT22;20193;49.810;6.418;2022-08-02T09:23:38;36.40;41.00
33901;DHT22;20193;49.810;6.418;2022-08-02T09:26:10;36.40;41.10
33901;DHT22;20193;49.810;6.418;2022-08-02T09:28:38;36.40;42.10
33901;DHT22;20193;49.810;6.418;2022-08-02T09:31:12;36.40;41.30
33901;DHT22;20193;49.810;6.418;2022-08-02T09:33:42;36.40;41.40
33901;DHT22;20193;49.810;6.418;2022-08-02T09:36:13;36.20;41.20
33901;DHT22;20193;49.810;6.418;2022-08-02T09:38:41;36.10;41.20
33901;DHT22;20193;49.810;6.418;2022-08-02T09:41:25;36.00;41.50
33901;DHT22;20193;49.810;6.418;2022-08-02T09:43:51;35.90;41.60
33901;DHT22;20193;49.810;6.418;2022-08-02T09:46:19;35.90;41.40
33901;DHT22;20193;49.810;6.418;2022-08-02T09:49:03;35.60;41.20
33901;DHT22;20193;49.810;6.418;2022-08-02T09:51:31;35.40;41.10
33901;DHT22;20193;49.810;6.418;2022-08-02T09:54:01;35.20;41.00
33901;DHT22;20193;49.810;6.418;2022-08-02T09:56:38;34.90;41.50
33901;DHT22;20193;49.810;6.418;2022-08-02T09:59:07;34.80;41.30
33901;DHT22;20193;49.810;6.418;2022-08-02T10:01:33;34.80;41.60
33901;DHT22;20193;49.810;6.418;2022-08-02T10:04:04;34.70;41.70
33901;DHT22;20193;49.810;6.418;2022-08-02T10:06:31;34.60;41.70
33901;DHT22;20193;49.810;6.418;2022-08-02T10:08:57;34.50;42.10
33901;DHT22;20193;49.810;6.418;2022-08-02T10:11:24;34.40;42.10
33901;DHT22;20193;49.810;6.418;2022-08-02T10:13:50;34.40;42.30
33901;DHT22;20193;49.810;6.418;2022-08-02T10:16:18;34.30;41.90
33901;DHT22;20193;49.810;6.418;2022-08-02T10:18:48;34.30;41.90
33901;DHT22;20193;49.810;6.418;2022-08-02T10:21:22;34.20;42.70
33901;DHT22;20193;49.810;6.418;2022-08-02T10:23:49;34.20;43.30
33901;DHT22;20193;49.810;6.418;2022-08-02T10:26:18;34.00;43.10
33901;DHT22;20193;49.810;6.418;2022-08-02T10:28:46;34.00;43.50
33901;DHT22;20193;49.810;6.418;2022-08-02T10:31:18;33.90;43.40
33901;DHT22;20193;49.810;6.418;2022-08-02T10:33:45;33.80;43.70
33901;DHT22;20193;49.810;6.418;2022-08-02T10:36:12;33.70;43.80
33901;DHT22;20193;49.810;6.418;2022-08-02T10:38:39;33.60;43.80
33901;DHT22;20193;49.810;6.418;2022-08-02T10:41:04;33.50;43.80
33901;DHT22;20193;49.810;6.418;2022-08-02T10:46:24;33.40;42.70
33901;DHT22;20193;49.810;6.418;2022-08-02T10:49:07;33.30;42.80
33901;DHT22;20193;49.810;6.418;2022-08-02T10:54:41;33.00;42.70
33901;DHT22;20193;49.810;6.418;2022-08-02T10:57:21;32.90;42.70
33901;DHT22;20193;49.810;6.418;2022-08-02T11:00:10;32.70;41.80
33901;DHT22;20193;49.810;6.418;2022-08-02T11:02:40;32.50;42.50
33901;DHT22;20193;49.810;6.418;2022-08-02T11:05:10;32.40;43.70
33901;DHT22;20193;49.810;6.418;2022-08-02T11:07:42;32.30;44.50
33901;DHT22;20193;49.810;6.418;2022-08-02T11:13:02;32.00;45.20
33901;DHT22;20193;49.810;6.418;2022-08-02T11:15:28;31.90;45.30
33901;DHT22;20193;49.810;6.418;2022-08-02T11:17:56;31.90;45.80
33901;DHT22;20193;49.810;6.418;2022-08-02T11:20:25;31.90;45.40
33901;DHT22;20193;49.810;6.418;2022-08-02T11:22:52;31.90;45.10
33901;DHT22;20193;49.810;6.418;2022-08-02T11:27:52;31.80;44.10
33901;DHT22;20193;49.810;6.418;2022-08-02T11:30:18;31.70;44.70
33901;DHT22;20193;49.810;6.418;2022-08-02T11:32:44;31.70;45.10
33901;DHT22;20193;49.810;6.418;2022-08-02T11:35:10;31.70;44.70
33901;DHT22;20193;49.810;6.418;2022-08-02T11:37:43;31.80;44.10
33901;DHT22;20193;49.810;6.418;2022-08-02T11:40:14;31.80;44.00
33901;DHT22;20193;49.810;6.418;2022-08-02T11:42:44;31.80;43.70
33901;DHT22;20193;49.810;6.418;2022-08-02T11:45:11;31.80;43.20
33901;DHT22;20193;49.810;6.418;2022-08-02T11:48:04;31.70;43.00
33901;DHT22;20193;49.810;6.418;2022-08-02T11:50:29;31.60;43.30
33901;DHT22;20193;49.810;6.418;2022-08-02T11:52:55;31.60;44.10
33901;DHT22;20193;49.810;6.418;2022-08-02T11:55:29;31.60;44.30
33901;DHT22;20193;49.810;6.418;2022-08-02T11:58:03;31.60;44.40
33901;DHT22;20193;49.810;6.418;2022-08-02T12:00:29;31.50;44.00
33901;DHT22;20193;49.810;6.418;2022-08-02T12:02:55;31.50;43.70
33901;DHT22;20193;49.810;6.418;2022-08-02T12:05:21;31.50;43.90
33901;DHT22;20193;49.810;6.418;2022-08-02T12:07:51;31.40;43.50
33901;DHT22;20193;49.810;6.418;2022-08-02T12:10:19;31.50;43.80
33901;DHT22;20193;49.810;6.418;2022-08-02T12:12:55;31.50;44.20
33901;DHT22;20193;49.810;6.418;2022-08-02T12:15:41;31.40;44.40
33901;DHT22;20193;49.810;6.418;2022-08-02T12:18:29;31.50;44.40
33901;DHT22;20193;49.810;6.418;2022-08-02T12:21:24;31.40;43.60
33901;DHT22;20193;49.810;6.418;2022-08-02T12:23:50;31.40;44.00
33901;DHT22;20193;49.810;6.418;2022-08-02T12:26:16;31.40;43.80
33901;DHT22;20193;49.810;6.418;2022-08-02T12:28:42;31.30;44.10
33901;DHT22;20193;49.810;6.418;2022-08-02T12:31:09;31.30;44.50
33901;DHT22;20193;49.810;6.418;2022-08-02T12:36:21;31.30;44.50
33901;DHT22;20193;49.810;6.418;2022-08-02T12:38:58;31.40;43.30
33901;DHT22;20193;49.810;6.418;2022-08-02T12:41:25;31.50;43.30
33901;DHT22;20193;49.810;6.418;2022-08-02T12:43:53;31.50;43.20
33901;DHT22;20193;49.810;6.418;2022-08-02T12:46:20;31.60;42.00
33901;DHT22;20193;49.810;6.418;2022-08-02T12:48:46;31.70;42.80
33901;DHT22;20193;49.810;6.418;2022-08-02T12:53:50;31.80;43.50
33901;DHT22;20193;49.810;6.418;2022-08-02T12:56:31;32.00;43.30
33901;DHT22;20193;49.810;6.418;2022-08-02T12:58:56;32.00;43.20
33901;DHT22;20193;49.810;6.418;2022-08-02T13:01:25;32.10;43.80
33901;DHT22;20193;49.810;6.418;2022-08-02T13:03:52;32.20;43.70
33901;DHT22;20193;49.810;6.418;2022-08-02T13:06:19;32.30;43.20
33901;DHT22;20193;49.810;6.418;2022-08-02T13:08:44;32.40;42.90
33901;DHT22;20193;49.810;6.418;2022-08-02T13:11:10;32.40;42.70
33901;DHT22;20193;49.810;6.418;2022-08-02T13:13:36;32.40;42.70
33901;DHT22;20193;49.810;6.418;2022-08-02T13:16:02;32.50;42.20
33901;DHT22;20193;49.810;6.418;2022-08-02T13:18:28;32.50;41.70
33901;DHT22;20193;49.810;6.418;2022-08-02T13:20:54;32.60;41.60
33901;DHT22;20193;49.810;6.418;2022-08-02T13:23:19;32.60;41.40
33901;DHT22;20193;49.810;6.418;2022-08-02T13:25:45;32.60;42.00
33901;DHT22;20193;49.810;6.418;2022-08-02T13:28:11;32.70;41.50
33901;DHT22;20193;49.810;6.418;2022-08-02T13:30:37;32.80;41.60
33901;DHT22;20193;49.810;6.418;2022-08-02T13:33:03;32.90;41.60
33901;DHT22;20193;49.810;6.418;2022-08-02T13:35:29;32.90;41.70
33901;DHT22;20193;49.810;6.418;2022-08-02T13:37:54;33.00;41.50
33901;DHT22;20193;49.810;6.418;2022-08-02T13:40:20;33.10;41.50
33901;DHT22;20193;49.810;6.418;2022-08-02T13:42:47;33.20;41.10
33901;DHT22;20193;49.810;6.418;2022-08-02T13:45:13;33.30;40.80
33901;DHT22;20193;49.810;6.418;2022-08-02T13:47:39;33.30;40.80
33901;DHT22;20193;49.810;6.418;2022-08-02T13:50:05;33.40;40.60
33901;DHT22;20193;49.810;6.418;2022-08-02T13:52:31;33.50;41.10
33901;DHT22;20193;49.810;6.418;2022-08-02T13:54:57;33.60;40.50
33901;DHT22;20193;49.810;6.418;2022-08-02T13:57:23;33.70;40.80
33901;DHT22;20193;49.810;6.418;2022-08-02T13:59:49;33.70;40.50
33901;DHT22;20193;49.810;6.418;2022-08-02T14:02:14;33.90;40.20
33901;DHT22;20193;49.810;6.418;2022-08-02T14:04:40;33.90;39.80
33901;DHT22;20193;49.810;6.418;2022-08-02T14:07:06;34.00;39.90
33901;DHT22;20193;49.810;6.418;2022-08-02T14:09:32;33.90;39.40
33901;DHT22;20193;49.810;6.418;2022-08-02T14:12:02;33.90;39.80
33901;DHT22;20193;49.810;6.418;2022-08-02T14:14:27;34.00;40.10
33901;DHT22;20193;49.810;6.418;2022-08-02T14:16:53;34.00;40.20
33901;DHT22;20193;49.810;6.418;2022-08-02T14:19:19;34.10;40.10
33901;DHT22;20193;49.810;6.418;2022-08-02T14:21:50;34.20;39.90
33901;DHT22;20193;49.810;6.418;2022-08-02T14:24:17;34.20;39.80
33901;DHT22;20193;49.810;6.418;2022-08-02T14:26:43;34.30;39.50
33901;DHT22;20193;49.810;6.418;2022-08-02T14:29:09;34.30;39.30
33901;DHT22;20193;49.810;6.418;2022-08-02T14:31:35;34.30;39.20
33901;DHT22;20193;49.810;6.418;2022-08-02T14:34:01;34.40;39.20
33901;DHT22;20193;49.810;6.418;2022-08-02T14:36:27;34.30;38.40
33901;DHT22;20193;49.810;6.418;2022-08-02T14:38:52;34.30;38.10
33901;DHT22;20193;49.810;6.418;2022-08-02T14:41:18;34.30;38.30
33901;DHT22;20193;49.810;6.418;2022-08-02T14:43:44;34.20;38.30
33901;DHT22;20193;49.810;6.418;2022-08-02T14:46:28;34.20;38.60
33901;DHT22;20193;49.810;6.418;2022-08-02T14:48:54;34.20;39.10
33901;DHT22;20193;49.810;6.418;2022-08-02T14:51:20;34.20;38.90
33901;DHT22;20193;49.810;6.418;2022-08-02T14:53:46;34.10;38.80
33901;DHT22;20193;49.810;6.418;2022-08-02T14:56:11;34.20;38.30
33901;DHT22;20193;49.810;6.418;2022-08-02T14:58:37;34.20;38.30
33901;DHT22;20193;49.810;6.418;2022-08-02T15:01:02;34.10;38.30
33901;DHT22;20193;49.810;6.418;2022-08-02T15:03:28;34.10;38.60
33901;DHT22;20193;49.810;6.418;2022-08-02T15:05:54;34.20;39.10
33901;DHT22;20193;49.810;6.418;2022-08-02T15:08:20;34.10;38.90
33901;DHT22;20193;49.810;6.418;2022-08-02T15:10:45;34.20;38.80
33901;DHT22;20193;49.810;6.418;2022-08-02T15:13:11;34.10;38.80
33901;DHT22;20193;49.810;6.418;2022-08-02T15:15:37;34.10;38.80
33901;DHT22;20193;49.810;6.418;2022-08-02T15:18:02;34.10;38.80
33901;DHT22;20193;49.810;6.418;2022-08-02T15:20:28;34.00;38.80
33901;DHT22;20193;49.810;6.418;2022-08-02T15:22:54;34.00;38.90
33901;DHT22;20193;49.810;6.418;2022-08-02T15:25:20;34.00;39.00
33901;DHT22;20193;49.810;6.418;2022-08-02T15:27:46;34.00;39.10
33901;DHT22;20193;49.810;6.418;2022-08-02T15:30:12;34.00;38.70
33901;DHT22;20193;49.810;6.418;2022-08-02T15:32:37;33.90;38.30
33901;DHT22;20193;49.810;6.418;2022-08-02T15:35:03;33.90;38.30
33901;DHT22;20193;49.810;6.418;2022-08-02T15:37:29;33.80;38.40
33901;DHT22;20193;49.810;6.418;2022-08-02T15:40:00;33.70;38.60
33901;DHT22;20193;49.810;6.418;2022-08-02T15:42:26;33.60;38.90
33901;DHT22;20193;49.810;6.418;2022-08-02T15:44:51;33.60;39.00
33901;DHT22;20193;49.810;6.418;2022-08-02T15:47:17;33.60;39.40
33901;DHT22;20193;49.810;6.418;2022-08-02T15:49:45;33.60;39.50
33901;DHT22;20193;49.810;6.418;2022-08-02T15:52:12;33.60;39.40
33901;DHT22;20193;49.810;6.418;2022-08-02T15:54:37;33.60;39.40
33901;DHT22;20193;49.810;6.418;2022-08-02T15:57:03;33.60;39.40
33901;DHT22;20193;49.810;6.418;2022-08-02T15:59:29;33.70;39.90
33901;DHT22;20193;49.810;6.418;2022-08-02T16:01:55;33.70;39.80
33901;DHT22;20193;49.810;6.418;2022-08-02T16:04:20;33.60;39.20
33901;DHT22;20193;49.810;6.418;2022-08-02T16:06:46;33.60;39.20
33901;DHT22;20193;49.810;6.418;2022-08-02T16:09:12;33.60;39.30